Time;durP1;ratioP1;P1;durP2;ratioP2;P2;SDS_P1;SDS_P2;PMS_P1;PMS_P2;Temp;Humidity;BMP_temperature;BMP_pressure;BME280_temperature;BME280_humidity;BME280_pressure;Samples;Min_cycle;Max_cycle;Signal;HPM_P1;HPM_P2
2023/09/05 00:00:48;;;;;;;9.40;7.60;;;18.00;1.00;;;;;;5088687;28;20492;-76
2023/09/05 00:03:16;;;;;;;8.70;8.10;;;18.00;1.00;;;;;;5077914;28;20542;-75
2023/09/05 00:05:45;;;;;;;8.27;7.47;;;18.00;1.00;;;;;;5082886;28;20464;-76
2023/09/05 00:08:13;;;;;;;8.17;7.40;;;18.00;1.00;;;;;;5085626;28;20560;-77
2023/09/05 00:10:46;;;;;;;7.93;7.30;;;17.90;1.00;;;;;;5083578;28;20618;-77
2023/09/05 00:13:14;;;;;;;7.97;7.37;;;17.90;1.00;;;;;;5081679;27;20567;-77
2023/09/05 00:15:41;;;;;;;8.37;7.67;;;17.90;1.00;;;;;;5085452;28;20550;-77
2023/09/05 00:18:08;;;;;;;8.30;7.60;;;17.90;1.00;;;;;;5083172;28;20532;-77
2023/09/05 00:20:36;;;;;;;9.03;8.33;;;17.90;1.00;;;;;;5083988;27;20515;-77
2023/09/05 00:23:05;;;;;;;8.93;8.13;;;17.80;1.00;;;;;;5085763;28;20569;-76
2023/09/05 00:25:33;;;;;;;8.20;7.50;;;17.70;1.00;;;;;;5083534;27;21683;-75
2023/09/05 00:28:03;;;;;;;8.37;7.77;;;17.80;1.00;;;;;;5070227;28;22635;-77
2023/09/05 00:30:31;;;;;;;8.23;7.57;;;17.80;1.00;;;;;;5067760;28;20455;-76
2023/09/05 00:32:58;;;;;;;8.17;7.57;;;17.80;1.00;;;;;;5072856;27;20432;-74
2023/09/05 00:35:25;;;;;;;8.13;7.43;;;17.80;1.00;;;;;;5076823;28;20548;-76
2023/09/05 00:37:53;;;;;;;8.23;7.63;;;17.80;1.00;;;;;;5078562;28;20533;-76
2023/09/05 00:40:22;;;;;;;8.83;7.80;;;17.80;1.00;;;;;;5072792;28;20473;-75
2023/09/05 00:42:49;;;;;;;8.83;6.90;;;17.70;1.00;;;;;;5088092;28;20491;-76
2023/09/05 00:45:16;;;;;;;7.97;7.27;;;17.80;1.00;;;;;;5084125;27;20499;-76
2023/09/05 00:47:47;;;;;;;6.77;6.17;;;17.80;1.00;;;;;;5078231;28;20457;-75
2023/09/05 00:50:18;;;;;;;6.90;6.30;;;17.80;1.00;;;;;;5067367;28;20469;-76
2023/09/05 00:52:45;;;;;;;6.90;6.40;;;17.80;1.00;;;;;;5082450;28;20476;-76
2023/09/05 00:55:12;;;;;;;8.73;7.13;;;17.80;1.00;;;;;;5081522;28;20927;-75
2023/09/05 00:57:42;;;;;;;7.30;6.70;;;17.90;1.00;;;;;;5073198;28;20473;-76
2023/09/05 01:00:13;;;;;;;7.37;6.77;;;17.80;1.00;;;;;;5070893;28;21157;-78
2023/09/05 01:02:41;;;;;;;7.00;6.50;;;17.80;1.00;;;;;;5078772;22;20461;-71
2023/09/05 01:05:10;;;;;;;7.13;6.53;;;17.70;1.00;;;;;;5061354;28;20465;-73
2023/09/05 01:07:55;;;;;;;7.23;6.73;;;17.60;1.00;;;;;;5054299;28;20474;-71
2023/09/05 01:10:29;;;;;;;7.70;6.90;;;17.60;1.00;;;;;;5060956;28;20449;-71
2023/09/05 01:12:59;;;;;;;7.53;6.77;;;17.60;1.00;;;;;;5062011;28;20554;-70
2023/09/05 01:15:26;;;;;;;7.30;6.70;;;17.60;1.00;;;;;;5058149;28;20555;-73
2023/09/05 01:17:54;;;;;;;6.70;6.20;;;17.60;1.00;;;;;;5058787;28;20598;-70
2023/09/05 01:20:23;;;;;;;8.43;7.67;;;17.60;1.00;;;;;;5060506;28;22268;-71
2023/09/05 01:22:59;;;;;;;6.27;5.87;;;17.60;1.00;;;;;;5059004;28;20971;-74
2023/09/05 01:25:29;;;;;;;7.13;6.53;;;17.50;1.00;;;;;;5057089;28;20475;-70
2023/09/05 01:27:59;;;;;;;7.77;7.23;;;17.50;1.00;;;;;;5060868;28;21249;-70
2023/09/05 01:30:28;;;;;;;7.00;6.40;;;17.50;1.00;;;;;;5059449;28;20458;-71
2023/09/05 01:32:55;;;;;;;7.60;7.00;;;17.50;1.00;;;;;;5059356;28;21023;-70
2023/09/05 01:35:22;;;;;;;7.40;6.80;;;17.50;1.00;;;;;;5060191;28;20524;-70
2023/09/05 01:37:49;;;;;;;7.17;6.57;;;17.40;1.00;;;;;;5058078;28;20531;-71
2023/09/05 01:40:16;;;;;;;7.17;6.57;;;17.40;1.00;;;;;;5058687;28;20979;-71
2023/09/05 01:42:44;;;;;;;7.90;7.20;;;17.40;1.00;;;;;;5055152;28;20561;-69
2023/09/05 01:45:11;;;;;;;7.40;6.80;;;17.40;1.00;;;;;;5058092;28;20476;-71
2023/09/05 01:47:38;;;;;;;8.10;7.40;;;17.40;1.00;;;;;;5058605;28;21018;-73
2023/09/05 01:50:06;;;;;;;7.97;7.37;;;17.40;1.00;;;;;;5058230;28;20548;-69
2023/09/05 01:52:33;;;;;;;8.37;7.67;;;17.30;1.00;;;;;;5057206;28;20542;-75
2023/09/05 01:55:00;;;;;;;6.57;6.00;;;17.30;1.00;;;;;;5054901;28;20526;-72
2023/09/05 01:57:27;;;;;;;8.30;6.37;;;17.30;1.00;;;;;;5057717;28;20549;-74
2023/09/05 01:59:55;;;;;;;7.47;6.77;;;17.30;1.00;;;;;;5059948;28;20477;-72
2023/09/05 02:02:22;;;;;;;7.03;6.47;;;17.20;1.00;;;;;;5056128;28;20465;-70
2023/09/05 02:04:50;;;;;;;7.93;7.23;;;17.20;1.00;;;;;;5060239;28;20477;-69
2023/09/05 02:07:18;;;;;;;7.53;6.90;;;17.20;1.00;;;;;;5060312;28;20451;-71
2023/09/05 02:09:45;;;;;;;7.97;7.30;;;17.20;1.00;;;;;;5055544;28;20500;-70
2023/09/05 02:12:12;;;;;;;7.53;6.83;;;17.20;1.00;;;;;;5057958;28;20587;-72
2023/09/05 02:14:43;;;;;;;7.00;6.30;;;17.20;1.00;;;;;;5094787;22;22948;-84
2023/09/05 02:17:12;;;;;;;7.90;7.30;;;17.20;1.00;;;;;;5079849;28;20457;-84
2023/09/05 02:19:39;;;;;;;8.70;7.90;;;17.20;1.00;;;;;;5079869;28;20463;-84
2023/09/05 02:22:07;;;;;;;7.10;6.50;;;17.20;1.00;;;;;;5085813;28;20597;-82
2023/09/05 02:24:34;;;;;;;11.90;6.70;;;17.20;1.00;;;;;;5083970;28;20510;-85
2023/09/05 02:27:04;;;;;;;6.63;6.13;;;17.20;1.00;;;;;;5081335;28;20537;-87
2023/09/05 02:29:32;;;;;;;7.10;6.50;;;17.10;1.00;;;;;;5082660;28;20564;-88
2023/09/05 02:32:02;;;;;;;10.63;7.33;;;17.10;1.00;;;;;;5080355;28;20550;-83
2023/09/05 02:34:30;;;;;;;9.27;7.53;;;17.00;1.00;;;;;;5078297;28;20471;-86
2023/09/05 02:36:57;;;;;;;7.93;7.10;;;17.00;1.00;;;;;;5084603;28;20458;-83
2023/09/05 02:39:24;;;;;;;9.47;8.63;;;17.00;1.00;;;;;;5064638;28;21485;-84
2023/09/05 02:41:51;;;;;;;7.10;6.50;;;17.00;1.00;;;;;;5081367;28;20470;-83
2023/09/05 02:44:19;;;;;;;7.13;6.53;;;17.00;1.00;;;;;;5079174;28;20474;-85
2023/09/05 02:46:48;;;;;;;7.30;6.80;;;17.00;1.00;;;;;;5083705;28;20536;-83
2023/09/05 02:49:15;;;;;;;7.40;6.73;;;17.10;1.00;;;;;;5080166;28;20474;-90
2023/09/05 02:51:43;;;;;;;7.80;7.20;;;17.10;1.00;;;;;;5085019;28;20501;-85
2023/09/05 02:54:10;;;;;;;7.17;6.53;;;17.10;1.00;;;;;;5086744;28;20477;-86
2023/09/05 02:56:37;;;;;;;7.97;7.27;;;17.10;1.00;;;;;;5085528;28;20567;-88
2023/09/05 02:59:04;;;;;;;7.13;6.43;;;17.10;1.00;;;;;;5088348;28;21271;-89
2023/09/05 03:01:31;;;;;;;9.27;6.60;;;17.10;1.00;;;;;;5069600;28;20531;-84
2023/09/05 03:04:01;;;;;;;7.90;7.20;;;17.00;1.00;;;;;;5087879;28;20600;-83
2023/09/05 03:06:28;;;;;;;7.63;7.03;;;17.00;1.00;;;;;;5067242;28;21057;-83
2023/09/05 03:08:57;;;;;;;7.50;6.80;;;17.10;1.00;;;;;;5089883;28;20420;-84
2023/09/05 03:11:24;;;;;;;8.83;7.27;;;17.10;1.00;;;;;;5098180;28;20516;-84
2023/09/05 03:13:51;;;;;;;8.03;7.27;;;17.20;1.00;;;;;;5105706;28;20438;-89
2023/09/05 03:16:18;;;;;;;7.67;6.83;;;17.20;1.00;;;;;;5109250;28;20424;-90
2023/09/05 03:18:46;;;;;;;7.67;6.97;;;17.20;1.00;;;;;;5109077;28;20415;-89
2023/09/05 03:21:13;;;;;;;10.47;7.57;;;17.20;1.00;;;;;;5107356;27;21247;-91
2023/09/05 03:23:40;;;;;;;7.27;6.60;;;17.20;1.00;;;;;;5111097;28;20466;-87
2023/09/05 03:26:09;;;;;;;10.90;8.37;;;17.20;1.00;;;;;;5109585;27;20444;-83
2023/09/05 03:28:40;;;;;;;8.40;7.77;;;17.10;1.00;;;;;;5092298;28;20420;-83
2023/09/05 03:31:10;;;;;;;8.40;7.70;;;17.00;1.00;;;;;;5101154;28;20423;-84
2023/09/05 03:33:37;;;;;;;8.47;7.67;;;17.00;1.00;;;;;;5097729;28;20592;-84
2023/09/05 03:36:05;;;;;;;9.13;8.00;;;17.00;1.00;;;;;;5096252;28;21367;-86
2023/09/05 03:38:33;;;;;;;9.30;8.43;;;17.00;1.00;;;;;;5097290;28;20458;-86
2023/09/05 03:41:00;;;;;;;8.90;8.20;;;17.00;1.00;;;;;;5090236;28;20500;-85
2023/09/05 03:43:29;;;;;;;8.23;7.30;;;17.00;1.00;;;;;;5100916;28;20460;-83
2023/09/05 03:45:58;;;;;;;6.97;6.40;;;17.00;1.00;;;;;;5080438;28;22543;-83
2023/09/05 03:48:25;;;;;;;6.80;6.23;;;16.90;1.00;;;;;;5051297;28;20511;-85
2023/09/05 03:50:52;;;;;;;7.10;5.77;;;16.90;1.00;;;;;;5091860;28;20540;-82
2023/09/05 03:53:20;;;;;;;8.17;6.30;;;16.90;1.00;;;;;;5090692;28;20567;-83
2023/09/05 03:55:48;;;;;;;7.40;6.50;;;16.90;1.00;;;;;;5088651;28;20450;-84
2023/09/05 03:58:15;;;;;;;7.20;6.50;;;16.90;1.00;;;;;;5077961;28;20962;-82
2023/09/05 04:10:49;;;;;;;5.40;4.90;;;16.80;1.00;;;;;;5095198;22;20439;-78
2023/09/05 04:13:16;;;;;;;6.00;5.50;;;16.80;1.00;;;;;;5057561;28;20424;-79
2023/09/05 04:15:43;;;;;;;7.10;6.40;;;16.80;1.00;;;;;;5058882;28;20525;-78
2023/09/05 04:18:10;;;;;;;7.00;6.40;;;16.80;1.00;;;;;;5059700;28;20456;-78
2023/09/05 04:20:37;;;;;;;6.00;5.50;;;16.80;1.00;;;;;;5063456;28;20492;-79
2023/09/05 04:23:04;;;;;;;6.90;6.40;;;16.80;1.00;;;;;;5059426;28;20428;-79
2023/09/05 04:25:32;;;;;;;7.37;6.80;;;16.80;1.00;;;;;;5066136;28;20560;-80
2023/09/05 04:28:01;;;;;;;8.43;6.90;;;16.90;1.00;;;;;;5061914;28;20455;-77
2023/09/05 04:30:27;;;;;;;7.77;7.07;;;16.90;1.00;;;;;;5058859;28;20906;-80
2023/09/05 04:32:54;;;;;;;7.23;6.60;;;16.90;1.00;;;;;;5061850;28;20472;-80
2023/09/05 04:35:22;;;;;;;12.10;10.93;;;16.90;1.00;;;;;;5064440;28;20493;-71
2023/09/05 04:37:52;;;;;;;6.90;6.30;;;16.80;1.00;;;;;;5057355;28;20493;-73
2023/09/05 04:40:19;;;;;;;7.33;6.73;;;16.80;1.00;;;;;;5060784;28;20975;-70
2023/09/05 04:42:48;;;;;;;6.70;6.20;;;16.80;1.00;;;;;;5059444;28;20538;-72
2023/09/05 04:45:17;;;;;;;7.33;6.60;;;16.90;1.00;;;;;;5054768;28;20920;-73
2023/09/05 04:51:05;;;;;;;10.30;6.73;;;17.00;1.00;;;;;;5060239;28;20416;-71
2023/09/05 04:53:32;;;;;;;19.80;17.10;;;17.00;1.00;;;;;;5059483;28;20534;-72
2023/09/05 04:56:00;;;;;;;6.63;5.93;;;16.90;1.00;;;;;;5061793;28;20472;-71
2023/09/05 04:58:27;;;;;;;7.20;6.50;;;17.00;1.00;;;;;;5064116;28;20470;-74
2023/09/05 05:00:56;;;;;;;6.80;6.20;;;17.00;1.00;;;;;;5060492;28;20459;-73
2023/09/05 05:03:24;;;;;;;7.50;6.80;;;17.00;1.00;;;;;;5065049;28;20473;-73
2023/09/05 05:05:52;;;;;;;6.23;5.73;;;17.00;1.00;;;;;;5058120;28;20477;-74
2023/09/05 05:08:18;;;;;;;6.80;6.20;;;17.00;1.00;;;;;;5063333;28;20453;-73
2023/09/05 05:10:45;;;;;;;7.30;6.60;;;16.90;1.00;;;;;;5063383;28;20571;-73
2023/09/05 05:13:12;;;;;;;7.70;6.90;;;17.00;1.00;;;;;;5054527;28;20516;-74
2023/09/05 05:15:39;;;;;;;7.53;6.83;;;17.00;1.00;;;;;;5058244;28;20469;-73
2023/09/05 05:18:07;;;;;;;6.43;5.83;;;17.00;1.00;;;;;;5061089;28;20937;-71
2023/09/05 05:20:34;;;;;;;7.43;6.53;;;17.10;1.00;;;;;;5062640;28;20999;-72
2023/09/05 05:23:01;;;;;;;6.67;6.10;;;17.10;1.00;;;;;;5060786;28;20937;-71
2023/09/05 05:25:28;;;;;;;7.97;7.17;;;17.10;1.00;;;;;;5062716;28;20471;-72
2023/09/05 05:27:57;;;;;;;6.80;6.20;;;17.20;1.00;;;;;;5064547;28;20531;-72
2023/09/05 05:30:24;;;;;;;6.60;6.10;;;17.30;1.00;;;;;;5059577;28;20470;-71
2023/09/05 05:32:51;;;;;;;6.53;5.50;;;17.30;1.00;;;;;;5064031;28;20456;-71
2023/09/05 05:35:21;;;;;;;6.70;6.20;;;17.30;1.00;;;;;;5061016;28;20497;-72
2023/09/05 05:37:48;;;;;;;7.23;6.50;;;17.30;1.00;;;;;;5059137;28;20590;-73
2023/09/05 05:40:16;;;;;;;7.67;6.90;;;17.30;1.00;;;;;;5058852;28;20534;-71
2023/09/05 05:42:43;;;;;;;7.67;6.90;;;17.30;1.00;;;;;;5062684;28;20495;-73
2023/09/05 05:45:10;;;;;;;7.57;6.77;;;17.40;1.00;;;;;;5056887;28;20477;-71
2023/09/05 05:47:37;;;;;;;7.53;6.70;;;17.50;1.00;;;;;;5061410;28;20464;-69
2023/09/05 05:50:06;;;;;;;7.23;6.40;;;17.50;1.00;;;;;;5061755;28;20551;-71
2023/09/05 05:52:34;;;;;;;7.37;6.77;;;17.60;1.00;;;;;;5062640;28;20462;-68
2023/09/05 05:55:01;;;;;;;9.60;5.27;;;17.60;1.00;;;;;;5060857;28;20468;-70
2023/09/05 05:57:31;;;;;;;7.37;6.20;;;17.60;1.00;;;;;;5062847;28;20449;-71
2023/09/05 05:59:58;;;;;;;7.17;6.47;;;17.70;1.00;;;;;;5059890;28;20603;-71
2023/09/05 06:02:25;;;;;;;7.83;5.87;;;17.80;1.00;;;;;;5061679;28;20970;-70
2023/09/05 06:04:51;;;;;;;6.80;6.20;;;17.80;1.00;;;;;;5060769;28;20985;-69
2023/09/05 06:07:18;;;;;;;6.53;5.90;;;17.80;1.00;;;;;;5059144;28;20482;-68
2023/09/05 06:09:47;;;;;;;7.43;5.80;;;17.80;1.00;;;;;;5057775;28;20467;-70
2023/09/05 06:12:13;;;;;;;7.97;5.80;;;17.90;1.00;;;;;;5058356;28;20997;-70
2023/09/05 06:14:40;;;;;;;7.90;5.93;;;18.00;1.00;;;;;;5064724;28;21449;-70
2023/09/05 06:17:07;;;;;;;7.73;6.67;;;18.00;1.00;;;;;;5061846;28;20574;-73
2023/09/05 06:19:34;;;;;;;7.87;7.03;;;18.20;1.00;;;;;;5054437;28;21192;-73
2023/09/05 06:22:01;;;;;;;10.50;7.20;;;18.30;1.00;;;;;;5062275;28;21208;-70
2023/09/05 06:24:28;;;;;;;8.63;5.70;;;18.40;1.00;;;;;;5056600;28;20762;-69
2023/09/05 06:26:56;;;;;;;6.20;5.70;;;18.60;1.00;;;;;;5057600;28;20561;-70
2023/09/05 06:29:23;;;;;;;7.07;5.60;;;18.70;1.00;;;;;;5058723;28;20585;-71
2023/09/05 06:31:51;;;;;;;6.73;5.50;;;18.80;1.00;;;;;;5059541;28;21083;-69
2023/09/05 06:34:17;;;;;;;6.47;5.43;;;18.90;1.00;;;;;;5061259;28;20539;-71
2023/09/05 06:36:46;;;;;;;5.97;5.37;;;19.00;1.00;;;;;;5062365;28;20556;-68
2023/09/05 06:39:13;;;;;;;6.30;5.70;;;19.00;1.00;;;;;;5053908;28;20540;-71
2023/09/05 06:41:41;;;;;;;7.33;5.27;;;19.10;1.00;;;;;;5049966;28;21034;-72
2023/09/05 06:44:09;;;;;;;6.07;5.57;;;19.20;1.00;;;;;;5059254;28;20480;-70
2023/09/05 06:46:37;;;;;;;5.30;4.90;;;19.40;1.00;;;;;;5056793;28;21424;-69
2023/09/05 06:49:04;;;;;;;9.90;5.30;;;19.40;1.00;;;;;;5060592;28;20494;-70
2023/09/05 06:51:31;;;;;;;9.87;5.43;;;19.60;1.00;;;;;;5053951;28;20481;-70
2023/09/05 06:53:58;;;;;;;6.87;4.90;;;19.70;1.00;;;;;;5057758;28;20481;-73
2023/09/05 06:56:25;;;;;;;5.70;5.20;;;19.90;1.00;;;;;;5058066;28;20897;-73
2023/09/05 06:58:52;;;;;;;5.73;5.07;;;20.00;1.00;;;;;;5060974;28;20569;-75
2023/09/05 07:01:20;;;;;;;5.33;4.47;;;20.20;1.00;;;;;;5056714;28;20543;-75
2023/09/05 07:03:47;;;;;;;4.43;4.03;;;20.20;1.00;;;;;;5064132;28;20461;-75
2023/09/05 07:06:18;;;;;;;5.27;4.87;;;20.30;1.00;;;;;;5062569;28;20465;-75
2023/09/05 07:08:46;;;;;;;5.07;4.20;;;20.50;1.00;;;;;;5057962;28;20468;-74
2023/09/05 07:11:12;;;;;;;4.57;4.27;;;20.50;1.00;;;;;;5056737;28;20547;-77
2023/09/05 07:13:52;;;;;;;6.97;4.20;;;20.60;1.00;;;;;;5065407;28;21048;-79
2023/09/05 07:16:21;;;;;;;4.20;3.80;;;20.80;1.00;;;;;;5058394;28;20463;-75
2023/09/05 07:18:47;;;;;;;6.40;4.30;;;21.00;1.00;;;;;;5062877;28;21034;-74
2023/09/05 07:21:15;;;;;;;4.67;4.27;;;21.10;1.00;;;;;;5059630;28;20488;-75
2023/09/05 07:23:42;;;;;;;4.50;4.10;;;21.10;1.00;;;;;;5058450;28;20480;-76
2023/09/05 07:26:09;;;;;;;7.13;4.20;;;21.10;1.00;;;;;;5055037;28;20873;-74
2023/09/05 07:28:36;;;;;;;4.20;3.83;;;21.30;1.00;;;;;;5055069;28;20459;-73
2023/09/05 07:31:03;;;;;;;3.80;3.50;;;21.40;1.00;;;;;;5054698;28;20979;-73
2023/09/05 07:33:33;;;;;;;5.20;3.80;;;21.50;1.00;;;;;;5058207;28;20479;-76
2023/09/05 07:36:00;;;;;;;5.00;4.40;;;21.80;1.00;;;;;;5056039;28;20559;-75
2023/09/05 07:38:27;;;;;;;4.43;3.67;;;22.00;1.00;;;;;;5062970;28;20550;-75
2023/09/05 07:41:02;;;;;;;4.63;3.60;;;22.10;1.00;;;;;;5061661;28;20532;-74
2023/09/05 07:43:29;;;;;;;3.70;3.37;;;22.20;1.00;;;;;;5058343;28;20540;-75
2023/09/05 07:45:56;;;;;;;4.87;4.10;;;22.20;1.00;;;;;;5064009;28;21041;-75
2023/09/05 07:48:23;;;;;;;3.80;3.50;;;22.20;1.00;;;;;;5063174;28;20462;-75
2023/09/05 07:50:53;;;;;;;4.03;3.53;;;22.30;1.00;;;;;;5065123;28;20455;-75
2023/09/05 07:53:20;;;;;;;10.00;3.93;;;22.30;1.00;;;;;;5062785;28;20463;-74
2023/09/05 07:55:48;;;;;;;3.73;3.43;;;22.30;1.00;;;;;;5062272;28;20495;-74
2023/09/05 07:58:15;;;;;;;4.10;3.70;;;22.40;1.00;;;;;;5066245;28;20469;-75
2023/09/05 08:00:42;;;;;;;5.27;3.50;;;22.40;1.00;;;;;;5062881;28;20487;-74
2023/09/05 08:03:10;;;;;;;3.80;3.50;;;22.50;1.00;;;;;;5062188;28;21340;-74
2023/09/05 08:05:37;;;;;;;5.83;3.37;;;22.50;1.00;;;;;;5062526;28;20465;-75
2023/09/05 08:08:05;;;;;;;5.50;3.80;;;22.60;1.00;;;;;;5060387;28;20543;-77
2023/09/05 08:10:33;;;;;;;4.07;3.03;;;22.80;1.00;;;;;;5063954;28;20456;-75
2023/09/05 08:13:00;;;;;;;4.10;3.40;;;22.90;1.00;;;;;;5059178;28;20595;-73
2023/09/05 08:15:27;;;;;;;6.10;3.83;;;23.00;1.00;;;;;;5065202;28;20467;-74
2023/09/05 08:17:54;;;;;;;3.83;3.53;;;23.00;1.00;;;;;;5062292;28;20543;-76
2023/09/05 08:20:21;;;;;;;3.40;3.10;;;23.00;1.00;;;;;;5062582;28;20619;-77
2023/09/05 08:22:48;;;;;;;3.80;3.50;;;23.10;1.00;;;;;;5060599;28;21059;-73
2023/09/05 08:25:18;;;;;;;3.47;3.13;;;23.20;1.00;;;;;;5064234;28;20464;-73
2023/09/05 08:27:45;;;;;;;3.60;3.30;;;23.30;1.00;;;;;;5060677;28;20986;-74
2023/09/05 08:30:13;;;;;;;4.30;3.37;;;23.20;1.00;;;;;;5059155;28;20992;-76
2023/09/05 08:32:40;;;;;;;4.03;3.63;;;23.30;1.00;;;;;;5067282;28;20469;-75
2023/09/05 08:35:10;;;;;;;4.17;3.13;;;23.40;1.00;;;;;;5060654;28;20457;-74
2023/09/05 08:37:37;;;;;;;4.10;3.70;;;23.50;1.00;;;;;;5061778;28;20474;-74
2023/09/05 08:40:04;;;;;;;5.07;4.67;;;23.70;1.00;;;;;;5060138;28;20585;-75
2023/09/05 08:42:37;;;;;;;4.07;3.27;;;23.80;1.00;;;;;;5056512;28;20476;-73
2023/09/05 08:45:05;;;;;;;3.60;3.30;;;24.00;1.00;;;;;;5062105;28;20534;-74
2023/09/05 08:47:32;;;;;;;4.23;3.10;;;24.20;1.00;;;;;;5064937;28;20515;-74
2023/09/05 08:49:59;;;;;;;3.87;3.47;;;24.30;1.00;;;;;;5063546;28;20560;-75
2023/09/05 08:52:32;;;;;;;4.70;3.03;;;24.40;1.00;;;;;;5058308;28;20440;-76
2023/09/05 08:55:02;;;;;;;3.40;3.10;;;24.50;1.00;;;;;;5059560;28;21302;-74
2023/09/05 08:57:29;;;;;;;3.60;3.30;;;24.40;1.00;;;;;;5059147;28;20463;-75
2023/09/05 08:59:58;;;;;;;2.73;2.50;;;24.50;1.00;;;;;;5061260;28;20459;-77
2023/09/05 09:02:26;;;;;;;5.13;2.97;;;24.50;1.00;;;;;;5061391;28;20443;-75
2023/09/05 09:04:56;;;;;;;2.90;2.67;;;24.70;1.00;;;;;;5063443;28;20896;-75
2023/09/05 09:07:27;;;;;;;2.70;2.50;;;24.70;1.00;;;;;;5061509;28;20498;-73
2023/09/05 09:09:54;;;;;;;2.87;2.67;;;24.90;1.00;;;;;;5058008;28;20961;-75
2023/09/05 09:12:28;;;;;;;3.17;2.80;;;25.00;1.00;;;;;;5063367;28;20470;-74
2023/09/05 09:14:55;;;;;;;2.50;2.30;;;25.10;1.00;;;;;;5061728;28;21332;-75
2023/09/05 09:17:23;;;;;;;3.43;2.40;;;25.20;1.00;;;;;;5059893;28;20480;-77
2023/09/05 09:19:52;;;;;;;5.33;2.47;;;25.40;1.00;;;;;;5066578;28;20464;-76
2023/09/05 09:22:24;;;;;;;2.60;2.30;;;25.90;1.00;;;;;;5068990;28;20497;-76
2023/09/05 09:24:53;;;;;;;2.40;2.20;;;27.00;1.00;;;;;;5062525;28;20491;-75
2023/09/05 09:27:22;;;;;;;2.43;2.00;;;28.40;1.00;;;;;;5068191;28;20476;-78
2023/09/05 09:29:54;;;;;;;4.10;2.87;;;30.00;1.00;;;;;;5064746;28;20464;-76
2023/09/05 09:32:24;;;;;;;2.50;2.30;;;31.50;1.00;;;;;;5059712;28;20474;-74
2023/09/05 09:34:51;;;;;;;2.03;1.93;;;32.50;1.00;;;;;;5065360;28;20666;-75
2023/09/05 09:37:25;;;;;;;2.27;2.10;;;33.30;1.00;;;;;;5061158;28;20449;-74
2023/09/05 09:39:58;;;;;;;2.90;2.37;;;34.20;1.00;;;;;;5068061;28;20463;-75
2023/09/05 09:42:25;;;;;;;2.80;2.07;;;34.40;1.00;;;;;;5060778;28;20898;-76
2023/09/05 09:44:52;;;;;;;5.70;2.67;;;34.50;1.00;;;;;;5063013;28;20462;-76
2023/09/05 09:47:20;;;;;;;2.60;2.40;;;34.70;1.00;;;;;;5064935;28;20472;-76
2023/09/05 09:49:50;;;;;;;3.70;2.00;;;35.10;1.00;;;;;;5064291;28;20463;-74
2023/09/05 09:52:19;;;;;;;4.03;2.67;;;35.50;1.00;;;;;;5062063;28;20471;-75
2023/09/05 09:54:47;;;;;;;3.50;2.20;;;35.80;1.00;;;;;;5063830;28;20964;-76
2023/09/05 09:57:19;;;;;;;3.60;3.30;;;35.60;1.00;;;;;;5062123;28;20470;-76
2023/09/05 09:59:54;;;;;;;2.30;2.10;;;35.70;1.00;;;;;;5061222;28;20459;-75
2023/09/05 10:02:22;;;;;;;5.27;3.07;;;35.90;1.00;;;;;;5061718;28;20478;-73
2023/09/05 10:04:54;;;;;;;2.90;2.10;;;36.00;1.00;;;;;;5062993;28;20454;-74
2023/09/05 10:07:22;;;;;;;2.70;2.10;;;35.90;1.00;;;;;;5062467;28;20527;-76
2023/09/05 10:09:52;;;;;;;2.60;2.40;;;34.40;1.00;;;;;;5062520;28;20593;-78
2023/09/05 10:12:21;;;;;;;2.80;2.17;;;34.80;1.00;;;;;;5057796;28;20508;-75
2023/09/05 10:14:49;;;;;;;2.43;2.23;;;35.20;1.00;;;;;;5058385;28;20509;-75
2023/09/05 10:17:18;;;;;;;2.27;2.00;;;36.30;1.00;;;;;;5057435;28;20948;-75
2023/09/05 10:19:46;;;;;;;5.50;4.20;;;36.60;1.00;;;;;;5059267;28;20450;-77
2023/09/05 10:22:18;;;;;;;2.87;2.63;;;36.50;1.00;;;;;;5059796;28;20553;-78
2023/09/05 10:24:46;;;;;;;4.23;3.30;;;36.40;1.00;;;;;;5060465;28;20993;-82
2023/09/05 10:27:13;;;;;;;2.17;2.00;;;35.90;1.00;;;;;;5062727;28;20503;-75
2023/09/05 10:29:42;;;;;;;1.67;1.57;;;36.30;1.00;;;;;;5056973;28;22226;-75
2023/09/05 10:32:10;;;;;;;3.83;1.80;;;37.20;1.00;;;;;;5056904;28;20468;-74
2023/09/05 10:34:58;;;;;;;2.50;2.30;;;37.00;1.00;;;;;;5058938;28;21036;-76
2023/09/05 10:37:39;;;;;;;3.13;2.00;;;37.70;1.00;;;;;;5062969;28;20980;-73
2023/09/05 10:40:08;;;;;;;3.17;2.03;;;38.10;1.00;;;;;;5061227;28;20486;-74
2023/09/05 10:42:36;;;;;;;2.60;1.73;;;38.50;1.00;;;;;;5058519;28;20466;-74
2023/09/05 10:45:18;;;;;;;2.33;1.97;;;38.70;1.00;;;;;;5057746;28;20483;-74
2023/09/05 10:47:47;;;;;;;3.00;1.67;;;38.60;1.00;;;;;;5059140;28;20561;-74
2023/09/05 10:50:19;;;;;;;2.20;2.00;;;39.10;1.00;;;;;;5059583;28;21126;-74
2023/09/05 10:52:49;;;;;;;2.03;1.83;;;39.20;1.00;;;;;;5060512;28;21023;-74
2023/09/05 10:55:39;;;;;;;2.63;2.30;;;38.90;1.00;;;;;;5061950;28;20427;-74
2023/09/05 10:58:37;;;;;;;2.40;2.30;;;38.60;1.00;;;;;;5059221;28;20475;-74
2023/09/05 11:01:41;;;;;;;2.20;1.77;;;38.80;1.00;;;;;;5055912;28;20444;-74
2023/09/05 11:04:23;;;;;;;2.10;1.90;;;39.40;1.00;;;;;;5060490;28;21384;-74
2023/09/05 11:06:58;;;;;;;5.00;1.80;;;40.20;1.00;;;;;;5060094;28;20475;-73
2023/09/05 11:09:26;;;;;;;3.00;1.80;;;40.70;1.00;;;;;;5058890;28;20468;-74
2023/09/05 11:11:55;;;;;;;2.97;1.60;;;41.30;1.00;;;;;;5063008;28;20554;-76
2023/09/05 11:14:32;;;;;;;2.20;1.93;;;40.80;1.00;;;;;;5062157;28;20546;-74
2023/09/05 11:16:59;;;;;;;1.93;1.80;;;41.10;1.00;;;;;;5066853;28;20963;-75
2023/09/05 11:19:40;;;;;;;1.97;1.53;;;41.00;1.00;;;;;;5063393;28;20653;-75
2023/09/05 11:22:10;;;;;;;2.20;2.07;;;41.00;1.00;;;;;;5063643;28;20459;-76
2023/09/05 11:24:45;;;;;;;2.37;1.90;;;41.20;1.00;;;;;;5060484;28;20577;-74
2023/09/05 11:27:13;;;;;;;2.30;2.10;;;41.20;1.00;;;;;;5064050;28;20467;-74
2023/09/05 11:29:42;;;;;;;3.07;2.50;;;41.20;1.00;;;;;;5064132;28;20536;-76
2023/09/05 11:32:13;;;;;;;3.33;2.30;;;41.30;1.00;;;;;;5062672;28;20876;-74
2023/09/05 11:34:41;;;;;;;2.03;1.60;;;42.00;1.00;;;;;;5062287;28;21140;-74
2023/09/05 11:37:08;;;;;;;2.77;2.50;;;42.00;1.00;;;;;;5061811;28;21059;-74
2023/09/05 11:39:36;;;;;;;22.60;21.20;;;41.90;1.00;;;;;;5062908;28;20527;-74
2023/09/05 11:42:05;;;;;;;1.80;1.70;;;42.20;1.00;;;;;;5059072;28;20544;-75
2023/09/05 11:44:34;;;;;;;2.67;2.13;;;42.30;1.00;;;;;;5068132;28;20463;-74
2023/09/05 11:47:01;;;;;;;2.23;2.00;;;42.40;1.00;;;;;;5055339;28;20490;-73
2023/09/05 11:49:30;;;;;;;2.10;2.00;;;42.80;1.00;;;;;;5062734;28;21044;-73
2023/09/05 11:52:00;;;;;;;2.57;2.17;;;42.90;1.00;;;;;;5064123;28;20480;-74
2023/09/05 11:54:28;;;;;;;4.00;2.13;;;42.40;1.00;;;;;;5062756;28;20525;-74
2023/09/05 11:56:55;;;;;;;5.90;2.77;;;42.50;1.00;;;;;;5066326;28;20486;-75
2023/09/05 11:59:24;;;;;;;2.17;1.83;;;42.90;1.00;;;;;;5063370;28;20583;-72
2023/09/05 12:01:51;;;;;;;5.50;1.60;;;42.90;1.00;;;;;;5060534;28;20956;-74
2023/09/05 12:04:19;;;;;;;1.77;1.63;;;43.40;1.00;;;;;;5059870;28;20488;-74
2023/09/05 12:06:49;;;;;;;1.77;1.67;;;43.80;1.00;;;;;;5058467;28;20468;-74
2023/09/05 12:09:16;;;;;;;2.17;1.50;;;44.00;1.00;;;;;;5059491;28;20451;-73
2023/09/05 12:11:43;;;;;;;3.57;1.73;;;44.10;1.00;;;;;;5061933;28;20519;-73
2023/09/05 12:14:10;;;;;;;1.60;1.50;;;44.50;1.00;;;;;;5061656;28;20556;-73
2023/09/05 12:16:45;;;;;;;1.57;1.47;;;44.40;1.00;;;;;;5059249;28;20667;-73
2023/09/05 12:19:12;;;;;;;2.83;1.53;;;44.90;1.00;;;;;;5057933;28;20459;-74
2023/09/05 12:21:41;;;;;;;1.93;1.50;;;44.50;1.00;;;;;;5063069;28;20460;-75
2023/09/05 12:24:22;;;;;;;2.27;1.93;;;44.50;1.00;;;;;;5057083;28;20503;-73
2023/09/05 12:26:52;;;;;;;8.83;2.53;;;44.60;1.00;;;;;;5061312;28;20538;-73
2023/09/05 12:29:21;;;;;;;3.00;1.63;;;43.80;1.00;;;;;;5061512;28;20486;-70
2023/09/05 12:31:51;;;;;;;1.93;1.53;;;44.20;1.00;;;;;;5062286;28;20492;-73
2023/09/05 12:34:19;;;;;;;2.80;1.80;;;44.30;1.00;;;;;;5059520;28;20532;-77
2023/09/05 12:36:46;;;;;;;1.70;1.60;;;43.90;1.00;;;;;;5058071;28;22169;-73
2023/09/05 12:39:13;;;;;;;2.30;1.73;;;43.00;1.00;;;;;;5061843;28;20459;-74
2023/09/05 12:41:40;;;;;;;2.70;1.50;;;42.10;1.00;;;;;;5058625;28;20475;-74
2023/09/05 12:44:08;;;;;;;1.90;1.60;;;41.60;1.00;;;;;;5059716;28;20479;-72
2023/09/05 12:46:35;;;;;;;3.07;1.90;;;40.10;1.00;;;;;;5063761;28;20534;-76
2023/09/05 12:49:04;;;;;;;2.33;2.13;;;39.80;1.00;;;;;;5059053;28;20524;-72
2023/09/05 12:51:33;;;;;;;2.20;2.00;;;40.10;1.00;;;;;;5058654;28;20491;-73
2023/09/05 12:54:00;;;;;;;4.40;2.23;;;40.90;1.00;;;;;;5061252;28;20480;-73
2023/09/05 12:56:29;;;;;;;2.20;1.90;;;41.70;1.00;;;;;;5060659;28;20647;-73
2023/09/05 12:58:56;;;;;;;4.67;2.20;;;43.20;1.00;;;;;;5063055;28;20532;-72
2023/09/05 13:01:24;;;;;;;2.67;1.93;;;43.30;1.00;;;;;;5057132;28;21133;-74
2023/09/05 13:03:51;;;;;;;5.50;5.00;;;43.30;1.00;;;;;;5062875;28;20581;-72
2023/09/05 13:06:20;;;;;;;4.67;3.17;;;42.20;1.00;;;;;;5049434;28;21033;-73
2023/09/05 13:08:48;;;;;;;2.57;2.37;;;42.10;1.00;;;;;;5054106;28;20600;-73
2023/09/05 13:11:16;;;;;;;2.93;2.10;;;43.10;1.00;;;;;;5057199;28;20463;-74
2023/09/05 13:13:44;;;;;;;2.80;1.47;;;44.10;1.00;;;;;;5059944;28;20471;-75
2023/09/05 13:16:11;;;;;;;2.40;2.20;;;44.30;1.00;;;;;;5061810;28;20459;-72
2023/09/05 13:18:38;;;;;;;4.13;2.43;;;45.10;1.00;;;;;;5059548;28;20520;-73